Weather at Euroa Aerodrome

Public forecast

Using degrees Celsius for public forecast. Weather courtesy of forecast.io.

Closest aviation weather report (METAR) to Euroa Aerodrome

Report is more than 6 hours old.

Closest report is Wangaratta Airport, 43.1 nm (79.8 km) ENE. Retrieved 2022/09/17 19:09 UTC (10 days ago):

YWGT 171909Z AUTO 31011KT 9999 // BKN014 BKN020 OVC027 10/09 Q1008

Closest aviation forecast (TAF) to Euroa Aerodrome

Forecast is more than 12 hours old.

Closest forecast is Wangaratta Airport, 43.1 nm (79.8 km) ENE. Retrieved 2022/05/11 20:03 UTC (5 months ago):

TAF TAF YWGT 111803Z 1120/1208 16005KT 9999 -RA BKN040 FM120200 12005KT 9999 -RA BKN025 TEMPO 1120/1208 4000 RA SCT015 BKN020